Time;durP1;ratioP1;P1;durP2;ratioP2;P2;SDS_P1;SDS_P2;PMS_P1;PMS_P2;Temp;Humidity;BMP_temperature;BMP_pressure;BME280_temperature;BME280_humidity;BME280_pressure;Samples;Min_cycle;Max_cycle;Signal;HPM_P1;HPM_P2
2023/09/29 00:01:49;;;;;;;10.00;8.10;;;;;;;9.78;99.55;97977.62;110104;1244;70662;-60
2023/09/29 00:04:19;;;;;;;8.50;6.50;;;;;;;9.72;97.33;97977.96;110114;1243;69392;-60
2023/09/29 00:06:52;;;;;;;8.30;6.00;;;;;;;9.68;99.92;97974.85;109925;1245;69216;-60
2023/09/29 00:09:27;;;;;;;8.30;6.10;;;;;;;9.65;100.00;97971.56;110030;1244;59756;-60
2023/09/29 00:12:00;;;;;;;9.50;7.30;;;;;;;9.63;90.06;97974.49;109831;1246;59703;-59
2023/09/29 00:14:33;;;;;;;11.00;7.70;;;;;;;9.64;91.09;97974.77;109787;1247;71231;-62
2023/09/29 00:17:08;;;;;;;11.40;8.70;;;;;;;9.65;87.27;97971.59;109959;1245;69358;-60
2023/09/29 00:19:44;;;;;;;9.50;7.40;;;;;;;9.66;89.18;97974.85;109986;1243;69244;-60
2023/09/29 00:22:14;;;;;;;9.50;7.30;;;;;;;9.67;87.33;97976.73;109945;1247;60139;-60
2023/09/29 00:24:45;;;;;;;8.30;6.90;;;;;;;9.67;94.61;97978.80;109913;1244;59688;-60
2023/09/29 00:27:19;;;;;;;7.10;6.00;;;;;;;9.62;95.52;97983.42;110070;1243;70643;-60
2023/09/29 00:29:55;;;;;;;7.10;5.90;;;;;;;9.56;96.82;97985.67;109806;1245;69467;-62
2023/09/29 00:32:28;;;;;;;7.10;6.00;;;;;;;9.52;96.16;97983.16;109997;1243;69263;-62
2023/09/29 00:35:00;;;;;;;7.50;5.50;;;;;;;9.49;97.78;97980.21;109965;1244;59770;-60
2023/09/29 00:37:32;;;;;;;9.00;6.30;;;;;;;9.46;89.97;97979.67;109940;1244;59682;-60
2023/09/29 00:40:13;;;;;;;7.60;6.00;;;;;;;9.44;87.92;97977.34;109687;1247;71729;-60
2023/09/29 00:42:46;;;;;;;8.40;6.40;;;;;;;9.44;88.82;97979.62;109873;1243;68517;-62
2023/09/29 00:45:20;;;;;;;10.80;8.00;;;;;;;9.43;86.46;97976.73;110027;1245;69265;-60
2023/09/29 00:47:51;;;;;;;12.90;10.10;;;;;;;9.44;87.55;97977.92;109902;1242;59674;-62
2023/09/29 00:50:23;;;;;;;12.80;10.30;;;;;;;9.44;88.84;97977.92;109856;1247;59732;-62
2023/09/29 00:52:59;;;;;;;13.90;11.60;;;;;;;9.42;91.84;97978.88;109990;1245;71958;-60
2023/09/29 00:55:32;;;;;;;12.00;9.70;;;;;;;9.40;93.96;97978.83;109964;1247;69109;-61
2023/09/29 00:58:05;;;;;;;12.90;10.00;;;;;;;9.39;95.21;97977.69;110147;1245;68532;-60
2023/09/29 01:00:40;;;;;;;11.30;9.00;;;;;;;9.39;95.46;97979.57;109973;1247;59684;-61
2023/09/29 01:03:14;;;;;;;12.50;10.20;;;;;;;9.39;93.73;97980.27;109896;1245;60015;-61
2023/09/29 01:05:49;;;;;;;12.20;8.70;;;;;;;9.40;93.46;97976.77;109892;1247;70666;-61
2023/09/29 01:08:23;;;;;;;14.50;11.20;;;;;;;9.37;98.89;97977.78;110047;1247;68395;-61
2023/09/29 01:10:56;;;;;;;12.90;10.20;;;;;;;9.37;97.01;97976.91;110020;1246;68328;-62
2023/09/29 01:13:28;;;;;;;13.30;9.70;;;;;;;9.36;98.43;97978.73;109904;1244;59704;-61
2023/09/29 01:16:00;;;;;;;14.90;11.00;;;;;;;9.33;99.08;97982.71;110054;1244;59691;-61
2023/09/29 01:18:31;;;;;;;12.80;9.70;;;;;;;9.30;99.87;97981.33;109878;1245;70500;-61
2023/09/29 01:21:06;;;;;;;10.30;8.80;;;;;;;9.26;100.00;97980.50;109948;1243;69406;-61
2023/09/29 01:23:38;;;;;;;10.70;8.40;;;;;;;9.24;100.00;97981.35;110027;1247;68435;-61
2023/09/29 01:26:11;;;;;;;10.50;7.90;;;;;;;9.22;98.32;97979.73;109986;1245;59743;-61
2023/09/29 01:28:43;;;;;;;13.50;10.70;;;;;;;9.18;97.19;97977.99;110073;1245;59684;-61
2023/09/29 01:31:14;;;;;;;11.60;8.90;;;;;;;9.15;97.19;97982.17;109956;1246;71413;-60
2023/09/29 01:33:48;;;;;;;16.10;11.20;;;;;;;9.11;99.73;97982.27;109988;1246;69100;-60
2023/09/29 01:36:18;;;;;;;11.80;9.60;;;;;;;9.07;98.38;97982.00;109876;1244;68412;-60
2023/09/29 01:38:49;;;;;;;12.00;9.10;;;;;;;9.03;97.25;97984.31;109978;1247;59940;-60
2023/09/29 01:41:22;;;;;;;11.40;8.80;;;;;;;8.99;98.94;97982.60;109886;1245;59636;-60
2023/09/29 01:43:55;;;;;;;10.00;8.00;;;;;;;8.96;99.43;97986.07;110066;1247;70713;-60
2023/09/29 01:46:29;;;;;;;10.50;8.30;;;;;;;8.93;99.71;97982.95;109734;1243;68992;-60
2023/09/29 01:49:01;;;;;;;9.40;6.80;;;;;;;8.88;100.00;97986.21;109843;1243;69204;-60
2023/09/29 01:51:33;;;;;;;11.40;7.60;;;;;;;8.81;99.17;97988.48;110001;1243;60175;-60
2023/09/29 01:54:05;;;;;;;8.60;6.70;;;;;;;8.76;96.13;97987.75;109904;1244;59768;-60
2023/09/29 01:56:36;;;;;;;8.70;7.10;;;;;;;8.70;98.25;97989.27;109906;1243;71437;-62
2023/09/29 01:59:07;;;;;;;10.20;8.20;;;;;;;8.64;100.00;97988.05;109932;1251;68588;-60
2023/09/29 02:01:36;;;;;;;;;;;;;;;8.58;100.00;97989.26;109873;1245;69338;-60
2023/09/29 02:04:07;;;;;;;8.70;7.10;;;;;;;8.52;100.00;97988.36;109792;1245;59806;-60
2023/09/29 02:06:42;;;;;;;9.50;7.60;;;;;;;8.47;100.00;97985.67;109796;1244;59771;-59
2023/09/29 02:09:13;;;;;;;10.30;7.30;;;;;;;8.42;100.00;97988.22;110043;1246;70400;-60
2023/09/29 02:11:45;;;;;;;8.40;7.20;;;;;;;8.37;100.00;97988.13;110061;1243;69894;-60
2023/09/29 02:14:18;;;;;;;13.10;7.90;;;;;;;8.32;99.72;97991.85;109722;1244;69308;-60
2023/09/29 02:16:51;;;;;;;8.30;6.80;;;;;;;8.31;99.74;97990.85;109810;1245;59818;-60
2023/09/29 02:19:23;;;;;;;12.40;9.30;;;;;;;8.29;100.00;97993.10;109830;1244;59659;-60
2023/09/29 02:21:55;;;;;;;9.00;7.20;;;;;;;8.25;100.00;97997.14;110061;1245;71206;-60
2023/09/29 02:24:26;;;;;;;8.20;7.20;;;;;;;8.22;100.00;97995.92;110048;1244;68581;-60
2023/09/29 02:26:56;;;;;;;12.20;9.20;;;;;;;8.18;100.00;97998.71;109818;1244;69321;-60
2023/09/29 02:29:27;;;;;;;10.10;7.50;;;;;;;8.15;100.00;97992.40;109907;1247;59753;-60
2023/09/29 02:31:58;;;;;;;;;;;;;;;8.13;100.00;97999.14;109755;1245;59713;-60
2023/09/29 02:34:29;;;;;;;11.60;7.20;;;;;;;8.13;100.00;97997.43;109796;1244;70660;-60
2023/09/29 02:37:00;;;;;;;9.20;7.90;;;;;;;8.11;100.00;97998.36;109950;1247;68477;-61
2023/09/29 02:39:30;;;;;;;9.30;7.20;;;;;;;8.10;100.00;97999.98;109903;1243;69324;-61
2023/09/29 02:42:00;;;;;;;7.90;6.00;;;;;;;8.10;100.00;97999.98;109892;1243;59691;-60
2023/09/29 02:44:33;;;;;;;11.60;7.30;;;;;;;8.08;100.00;98000.80;109978;1244;59754;-60
2023/09/29 02:47:02;;;;;;;10.00;8.20;;;;;;;8.06;100.00;97996.23;109985;1245;71444;-60
2023/09/29 02:49:34;;;;;;;9.00;6.80;;;;;;;8.04;100.00;97995.48;109816;1246;69350;-61
2023/09/29 02:52:06;;;;;;;9.30;6.90;;;;;;;8.03;100.00;97990.84;109968;1243;68557;-60
2023/09/29 02:54:36;;;;;;;9.20;6.80;;;;;;;8.03;100.00;97993.76;109745;1245;59746;-60
2023/09/29 02:57:07;;;;;;;10.50;7.60;;;;;;;8.01;99.92;97990.62;109948;1246;59684;-59
2023/09/29 02:59:38;;;;;;;10.60;6.40;;;;;;;7.98;97.77;97992.67;109847;1245;70835;-60
2023/09/29 03:02:10;;;;;;;9.50;6.50;;;;;;;7.94;99.31;97991.82;110056;1246;69271;-60
2023/09/29 03:04:43;;;;;;;8.40;6.40;;;;;;;7.92;99.78;97996.28;109724;1252;69136;-60
2023/09/29 03:07:14;;;;;;;9.40;6.50;;;;;;;7.90;99.88;97998.63;109803;1243;59716;-60
2023/09/29 03:09:46;;;;;;;9.30;7.20;;;;;;;7.90;99.77;97998.30;109768;1247;59701;-60
2023/09/29 03:12:17;;;;;;;11.30;7.10;;;;;;;7.88;100.00;98001.52;109954;1246;71343;-61
2023/09/29 03:14:49;;;;;;;9.00;7.50;;;;;;;7.86;100.00;98003.35;109753;1246;68357;-60
2023/09/29 03:17:20;;;;;;;7.80;6.20;;;;;;;7.81;100.00;98000.15;109892;1245;69282;-60
2023/09/29 03:19:52;;;;;;;9.70;7.00;;;;;;;7.78;100.00;97999.45;109814;1245;59673;-60
2023/09/29 03:22:21;;;;;;;9.70;7.50;;;;;;;7.74;100.00;97999.46;109793;1252;59785;-61
2023/09/29 03:24:52;;;;;;;11.00;7.70;;;;;;;7.73;100.00;98001.46;109868;1244;69953;-62
2023/09/29 03:27:23;;;;;;;8.50;7.00;;;;;;;7.71;100.00;97997.39;110108;1245;69225;-63
2023/09/29 03:29:53;;;;;;;8.50;6.60;;;;;;;7.70;100.00;98003.17;109931;1246;69105;-61
2023/09/29 03:32:24;;;;;;;8.80;7.20;;;;;;;7.69;100.00;98007.04;109996;1245;59686;-61
2023/09/29 03:34:55;;;;;;;10.60;7.30;;;;;;;7.67;100.00;98005.55;109982;1245;59716;-62
2023/09/29 03:37:27;;;;;;;8.50;6.20;;;;;;;7.64;100.00;98007.11;109914;1253;71949;-59
2023/09/29 03:39:58;;;;;;;11.00;7.90;;;;;;;7.60;100.00;98009.70;109907;1252;69170;-60
2023/09/29 03:42:29;;;;;;;8.90;6.00;;;;;;;7.58;100.00;98008.45;109793;1245;68528;-61
2023/09/29 03:44:59;;;;;;;11.00;7.00;;;;;;;7.55;100.00;98007.08;109964;1244;59783;-59
2023/09/29 03:47:29;;;;;;;11.60;8.90;;;;;;;7.54;100.00;98010.04;109844;1245;59687;-61
2023/09/29 03:50:00;;;;;;;;;;;;;;;7.50;100.00;98011.10;109976;1245;72261;-61
2023/09/29 03:52:32;;;;;;;11.30;8.20;;;;;;;7.44;100.00;98011.23;109925;1245;69116;-61
2023/09/29 03:55:02;;;;;;;10.00;7.10;;;;;;;7.39;100.00;98012.70;109960;1245;70238;-59
2023/09/29 03:57:32;;;;;;;9.40;7.30;;;;;;;7.36;100.00;98011.33;109875;1245;59710;-60
2023/09/29 04:00:04;;;;;;;8.60;6.70;;;;;;;7.35;100.00;98011.19;109814;1245;59602;-59
2023/09/29 04:02:41;;;;;;;10.80;7.40;;;;;;;7.33;100.00;98010.39;109999;1249;71227;-62
2023/09/29 04:05:11;;;;;;;10.20;7.20;;;;;;;7.32;100.00;98015.52;109831;1244;67745;-60
2023/09/29 04:07:42;;;;;;;;;;;;;;;7.30;100.00;98015.23;109791;1252;68346;-59
2023/09/29 04:10:13;;;;;;;12.60;8.40;;;;;;;7.28;100.00;98019.15;109943;1245;59723;-60
2023/09/29 04:12:47;;;;;;;8.00;6.30;;;;;;;7.27;100.00;98021.13;110008;1245;59746;-60
2023/09/29 04:15:17;;;;;;;8.90;6.40;;;;;;;7.25;100.00;98021.55;109893;1245;72338;-59
2023/09/29 04:17:47;;;;;;;9.40;7.10;;;;;;;7.24;100.00;98020.77;109798;1251;68359;-60
2023/09/29 04:20:18;;;;;;;7.20;6.00;;;;;;;7.24;100.00;98024.57;109804;1246;68570;-60
2023/09/29 04:22:50;;;;;;;9.20;6.90;;;;;;;7.24;100.00;98023.70;109792;1245;59767;-61
2023/09/29 04:25:20;;;;;;;8.20;6.20;;;;;;;7.24;100.00;98026.11;109899;1244;59626;-62
2023/09/29 04:27:49;;;;;;;10.60;7.20;;;;;;;7.29;100.00;98026.55;109924;1244;70883;-61
2023/09/29 04:30:20;;;;;;;9.40;6.50;;;;;;;7.32;100.00;98025.02;109954;1245;69256;-61
2023/09/29 04:32:52;;;;;;;10.10;7.20;;;;;;;7.36;100.00;98022.06;109992;1245;68351;-60
2023/09/29 04:35:22;;;;;;;9.40;6.90;;;;;;;7.41;100.00;98023.54;109935;1244;59734;-60
2023/09/29 04:37:52;;;;;;;8.80;7.20;;;;;;;7.44;100.00;98025.48;110016;1246;59663;-61
2023/09/29 04:40:23;;;;;;;8.20;5.90;;;;;;;7.48;100.00;98024.05;109993;1245;70835;-61
2023/09/29 04:42:54;;;;;;;10.00;6.60;;;;;;;7.54;100.00;98025.13;109947;1246;68649;-61
2023/09/29 04:45:24;;;;;;;8.50;7.10;;;;;;;7.61;100.00;98031.18;109804;1245;69905;-61
2023/09/29 04:47:54;;;;;;;8.30;6.90;;;;;;;7.67;100.00;98029.36;109820;1245;59737;-61
2023/09/29 04:50:25;;;;;;;8.50;6.40;;;;;;;7.79;100.00;98030.28;109834;1244;59700;-61
2023/09/29 04:52:56;;;;;;;8.50;6.40;;;;;;;7.97;100.00;98034.05;109783;1245;71409;-61
2023/09/29 04:55:28;;;;;;;8.30;6.60;;;;;;;8.12;100.00;98038.59;110031;1245;68421;-61
2023/09/29 04:57:58;;;;;;;6.60;5.40;;;;;;;8.35;100.00;98037.77;109939;1247;68891;-61
2023/09/29 05:00:28;;;;;;;8.50;6.80;;;;;;;8.57;100.00;98038.30;110026;1244;59684;-61
2023/09/29 05:02:57;;;;;;;12.20;6.90;;;;;;;8.75;100.00;98040.45;109719;1245;59736;-61
2023/09/29 05:05:27;;;;;;;8.60;7.30;;;;;;;8.89;100.00;98045.42;110006;1244;71938;-61
2023/09/29 05:07:56;;;;;;;12.60;8.30;;;;;;;8.95;100.00;98048.19;109944;1244;69691;-61
2023/09/29 05:10:26;;;;;;;12.00;8.40;;;;;;;9.02;100.00;98050.02;109856;1245;70549;-61
2023/09/29 05:12:55;;;;;;;12.00;9.40;;;;;;;9.02;100.00;98051.79;109811;1244;60098;-61
2023/09/29 05:15:24;;;;;;;11.30;8.30;;;;;;;9.07;100.00;98054.45;109992;1245;59684;-61
2023/09/29 05:17:54;;;;;;;9.60;7.90;;;;;;;9.20;100.00;98055.86;110049;1245;71251;-61
2023/09/29 05:20:24;;;;;;;128.40;62.00;;;;;;;9.35;100.00;98055.50;109982;1245;69200;-60
2023/09/29 05:22:54;;;;;;;70.60;40.10;;;;;;;9.56;100.00;98055.11;109770;1246;69852;-61
2023/09/29 05:25:24;;;;;;;48.00;28.00;;;;;;;9.86;100.00;98058.24;109909;1245;59763;-62
2023/09/29 05:27:53;;;;;;;24.50;16.60;;;;;;;10.13;100.00;98053.85;110049;1247;60150;-62
2023/09/29 05:30:23;;;;;;;24.10;14.10;;;;;;;10.36;100.00;98050.51;109978;1245;71988;-62
2023/09/29 05:32:52;;;;;;;15.00;12.20;;;;;;;10.55;99.88;98054.93;110055;1244;69060;-61
2023/09/29 05:35:22;;;;;;;13.00;9.80;;;;;;;10.74;98.88;98047.95;110045;1245;68588;-61
2023/09/29 05:37:51;;;;;;;11.20;9.30;;;;;;;10.96;97.68;98052.67;109989;1245;59656;-61
2023/09/29 05:40:21;;;;;;;10.10;8.40;;;;;;;11.12;96.20;98054.75;109986;1244;59700;-62
2023/09/29 05:42:51;;;;;;;;;;;;;;;11.22;97.17;98054.87;110058;1245;70680;-61
2023/09/29 05:45:21;;;;;;;10.90;8.70;;;;;;;11.35;97.10;98051.55;109889;1246;69137;-60
2023/09/29 05:47:51;;;;;;;9.20;7.90;;;;;;;11.43;96.85;98051.85;109993;1245;69719;-60
2023/09/29 05:50:30;;;;;;;10.70;8.70;;;;;;;11.57;96.86;98054.10;109784;1244;59708;-60
2023/09/29 05:52:59;;;;;;;11.00;7.80;;;;;;;11.80;95.79;98055.02;109855;1244;60138;-60
2023/09/29 05:55:39;;;;;;;12.20;10.00;;;;;;;11.97;94.45;98055.77;109955;1244;72333;-61
2023/09/29 05:58:08;;;;;;;11.50;9.00;;;;;;;12.06;94.24;98053.63;109942;1244;69871;-61
2023/09/29 06:00:38;;;;;;;13.00;10.80;;;;;;;12.25;93.71;98050.70;109955;1244;69978;-60
2023/09/29 06:03:08;;;;;;;11.10;9.40;;;;;;;12.43;92.37;98053.29;109925;1244;59709;-60
2023/09/29 06:05:38;;;;;;;10.20;8.90;;;;;;;12.68;92.29;98052.73;109857;1246;59669;-61
2023/09/29 06:08:08;;;;;;;10.60;9.00;;;;;;;13.02;91.41;98054.35;109773;1246;71352;-60
2023/09/29 06:10:37;;;;;;;10.40;8.50;;;;;;;13.29;87.55;98059.95;109934;1244;68541;-60
2023/09/29 06:13:06;;;;;;;;;;;;;;;13.59;87.75;98061.91;110047;1244;69257;-61
2023/09/29 06:15:39;;;;;;;12.00;9.80;;;;;;;13.93;85.99;98062.85;110026;1246;59729;-61
2023/09/29 06:18:08;;;;;;;10.60;9.10;;;;;;;14.09;82.72;98061.30;109808;1244;59745;-60
2023/09/29 06:20:40;;;;;;;11.10;9.80;;;;;;;14.26;82.37;98059.23;109909;1244;71430;-60
2023/09/29 06:23:10;;;;;;;10.00;8.90;;;;;;;14.60;81.57;98058.91;109965;1245;69695;-61
2023/09/29 06:25:41;;;;;;;13.00;9.50;;;;;;;14.81;79.67;98056.04;109997;1244;68461;-61
2023/09/29 06:28:10;;;;;;;12.90;9.80;;;;;;;15.14;77.06;98054.78;109938;1244;59682;-61
2023/09/29 06:30:42;;;;;;;15.30;10.70;;;;;;;15.46;75.14;98057.41;109771;1245;59704;-61
2023/09/29 06:33:11;;;;;;;11.00;9.40;;;;;;;15.68;75.22;98058.23;109805;1244;71977;-61
2023/09/29 06:35:41;;;;;;;10.40;9.30;;;;;;;16.20;75.06;98060.52;110069;1244;69861;-61
2023/09/29 06:38:11;;;;;;;11.80;9.50;;;;;;;16.57;71.01;98062.63;109915;1244;69888;-61
2023/09/29 06:40:40;;;;;;;10.90;9.70;;;;;;;16.81;70.32;98058.58;110009;1245;59710;-63
2023/09/29 06:43:10;;;;;;;11.00;9.30;;;;;;;17.02;69.54;98064.19;109819;1246;59686;-59
2023/09/29 06:45:40;;;;;;;10.40;8.90;;;;;;;17.32;68.03;98069.52;109804;1245;71550;-61
2023/09/29 06:48:30;;;;;;;11.00;9.90;;;;;;;17.44;66.57;98071.13;109807;1246;69884;-61
2023/09/29 06:50:59;;;;;;;10.70;9.30;;;;;;;17.51;64.86;98072.11;110028;1243;69812;-61
2023/09/29 06:53:31;;;;;;;11.80;9.10;;;;;;;17.59;64.58;98070.46;109915;1244;59704;-61
2023/09/29 06:56:00;;;;;;;15.20;11.70;;;;;;;17.58;64.99;98070.21;109808;1245;59819;-61
2023/09/29 06:58:30;;;;;;;11.80;9.90;;;;;;;17.75;65.84;98068.70;109866;1245;71223;-60
2023/09/29 07:01:02;;;;;;;11.90;10.00;;;;;;;17.73;66.17;98070.25;109890;1244;69339;-61
2023/09/29 07:03:33;;;;;;;11.60;10.40;;;;;;;17.87;65.52;98073.59;109960;1245;69249;-62
2023/09/29 07:06:03;;;;;;;11.20;10.10;;;;;;;17.80;65.33;98073.68;109895;1244;59766;-61
2023/09/29 07:08:33;;;;;;;13.20;10.40;;;;;;;18.20;62.89;98076.73;110032;1245;59692;-61
2023/09/29 07:11:02;;;;;;;;;;;;;;;18.48;58.93;98072.43;109958;1244;71385;-60
2023/09/29 07:13:31;;;;;;;11.30;9.60;;;;;;;18.45;57.77;98070.83;110044;1244;69111;-61
2023/09/29 07:16:03;;;;;;;11.30;8.50;;;;;;;18.63;57.65;98069.84;109968;1246;70018;-61
2023/09/29 07:18:32;;;;;;;9.90;8.90;;;;;;;19.07;56.92;98066.45;109972;1244;59742;-61
2023/09/29 07:21:04;;;;;;;10.80;8.90;;;;;;;19.42;55.68;98067.82;109987;1244;59750;-60
2023/09/29 07:23:34;;;;;;;10.60;8.80;;;;;;;19.67;53.44;98066.91;110038;1244;70461;-61
2023/09/29 07:26:04;;;;;;;10.20;8.90;;;;;;;20.15;51.34;98067.39;110030;1244;69226;-61
2023/09/29 07:28:33;;;;;;;10.80;9.40;;;;;;;20.71;51.32;98070.89;109992;1245;69861;-61
2023/09/29 07:31:02;;;;;;;10.10;8.50;;;;;;;20.45;49.60;98069.48;109982;1244;59737;-61
2023/09/29 07:33:32;;;;;;;10.40;8.60;;;;;;;20.78;50.90;98067.31;110074;1243;59705;-61
2023/09/29 07:36:02;;;;;;;11.90;9.90;;;;;;;21.24;50.93;98063.86;109820;1244;71979;-62
2023/09/29 07:38:32;;;;;;;10.80;9.70;;;;;;;21.88;49.60;98064.80;109864;1244;69844;-60
2023/09/29 07:41:04;;;;;;;11.40;8.50;;;;;;;21.82;49.47;98065.26;109932;1245;69656;-61
2023/09/29 07:43:34;;;;;;;10.20;8.50;;;;;;;22.32;49.21;98068.14;109955;1244;59685;-61
2023/09/29 07:46:04;;;;;;;9.30;8.10;;;;;;;22.53;48.48;98065.31;110015;1245;59687;-61
2023/09/29 07:48:34;;;;;;;10.40;8.80;;;;;;;23.27;48.16;98059.10;109945;1244;71775;-61
2023/09/29 07:51:03;;;;;;;11.70;9.00;;;;;;;23.49;45.94;98060.30;109927;1245;69857;-61
2023/09/29 07:53:33;;;;;;;11.40;8.60;;;;;;;23.17;45.54;98054.14;109945;1244;69714;-61
2023/09/29 07:56:02;;;;;;;12.60;9.90;;;;;;;23.66;45.77;98057.90;109995;1245;59739;-60
2023/09/29 07:58:31;;;;;;;10.40;9.40;;;;;;;23.75;44.58;98055.15;109824;1245;59756;-61
2023/09/29 08:01:01;;;;;;;11.20;9.80;;;;;;;23.54;44.53;98053.83;109932;1244;71665;-60
2023/09/29 08:03:31;;;;;;;9.30;7.90;;;;;;;24.09;44.92;98056.06;109951;1244;69266;-61
2023/09/29 08:06:00;;;;;;;10.00;8.90;;;;;;;24.85;44.29;98053.02;109942;1244;69888;-60
2023/09/29 08:08:30;;;;;;;11.20;9.30;;;;;;;24.60;41.82;98054.28;110014;1244;59716;-61
2023/09/29 08:11:00;;;;;;;13.90;10.60;;;;;;;25.06;42.31;98053.15;109961;1244;59691;-61
2023/09/29 08:13:29;;;;;;;12.60;10.80;;;;;;;25.46;40.66;98051.70;109999;1244;71986;-62
2023/09/29 08:15:59;;;;;;;11.30;9.80;;;;;;;25.39;39.55;98048.02;109967;1244;69277;-62
2023/09/29 08:18:29;;;;;;;;;;;;;;;24.86;40.76;98048.04;109750;1243;69268;-61
2023/09/29 08:20:58;;;;;;;11.40;10.30;;;;;;;25.23;40.35;98046.80;109880;1244;59717;-61
2023/09/29 08:23:30;;;;;;;10.50;9.10;;;;;;;25.48;39.44;98047.69;109867;1244;59703;-61
2023/09/29 08:26:00;;;;;;;12.80;11.40;;;;;;;25.79;39.66;98048.98;109970;1245;71201;-62
2023/09/29 08:28:30;;;;;;;15.70;11.00;;;;;;;26.00;38.07;98049.70;110110;1244;69840;-62
2023/09/29 08:30:59;;;;;;;15.30;11.30;;;;;;;25.54;38.38;98047.75;109979;1244;69321;-63
2023/09/29 08:33:30;;;;;;;11.60;9.60;;;;;;;25.37;38.61;98048.02;109960;1243;59668;-59
2023/09/29 08:36:16;;;;;;;11.60;10.50;;;;;;;25.35;39.09;98045.82;110091;1245;59678;-60
2023/09/29 08:38:45;;;;;;;11.20;8.20;;;;;;;25.76;38.16;98045.02;110037;1244;71712;-60
2023/09/29 08:41:16;;;;;;;9.90;8.90;;;;;;;26.13;38.32;98043.38;109854;1244;69275;-62
2023/09/29 08:43:46;;;;;;;12.50;10.00;;;;;;;26.63;37.03;98035.18;110005;1245;69883;-62
2023/09/29 08:46:39;;;;;;;11.70;10.00;;;;;;;26.64;36.48;98039.18;109918;1245;59678;-62
2023/09/29 08:49:09;;;;;;;9.50;8.60;;;;;;;26.83;36.03;98032.92;110072;1244;59773;-62
2023/09/29 08:51:46;;;;;;;10.00;8.30;;;;;;;27.20;35.37;98029.02;109952;1243;71347;-60
2023/09/29 08:54:15;;;;;;;9.50;8.60;;;;;;;27.63;34.83;98030.98;110004;1244;69838;-60
2023/09/29 08:56:46;;;;;;;11.00;9.70;;;;;;;27.75;34.58;98027.44;109808;1243;68529;-61
2023/09/29 08:59:16;;;;;;;10.50;8.80;;;;;;;27.85;33.87;98025.77;109891;1244;59765;-61
2023/09/29 09:01:46;;;;;;;10.20;8.70;;;;;;;27.91;34.46;98023.49;109964;1244;59746;-61
2023/09/29 09:04:15;;;;;;;10.20;8.70;;;;;;;28.37;33.80;98021.38;109991;1243;71724;-61
2023/09/29 09:06:45;;;;;;;10.00;8.90;;;;;;;28.80;32.76;98021.02;109538;1244;606261;-61
2023/09/29 09:09:20;;;;;;;;;;;;;;;28.73;32.60;98019.13;109896;1244;69901;-61
2023/09/29 09:11:50;;;;;;;14.30;9.90;;;;;;;28.84;32.56;98017.90;109976;1245;59724;-62
2023/09/29 09:14:20;;;;;;;10.50;8.50;;;;;;;29.16;32.20;98015.48;109846;1244;59673;-60
2023/09/29 09:16:50;;;;;;;12.50;9.60;;;;;;;29.55;31.64;98016.85;109824;1244;71290;-61
2023/09/29 09:19:21;;;;;;;11.10;9.80;;;;;;;29.50;31.12;98013.38;109769;1244;69159;-60
2023/09/29 09:21:51;;;;;;;10.50;9.20;;;;;;;29.67;31.18;98013.45;109794;1245;69780;-61
2023/09/29 09:24:23;;;;;;;13.60;10.40;;;;;;;29.99;30.82;98011.89;110020;1244;59699;-61
2023/09/29 09:27:02;;;;;;;13.10;10.80;;;;;;;30.33;29.79;98015.77;109842;1243;59709;-61
2023/09/29 09:29:40;;;;;;;10.20;9.10;;;;;;;30.28;30.06;98015.51;109859;1244;71442;-62
2023/09/29 09:32:10;;;;;;;9.70;8.60;;;;;;;30.56;30.11;98013.59;109868;1244;69841;-61
2023/09/29 09:34:41;;;;;;;12.20;10.00;;;;;;;30.81;29.36;98005.19;109910;1244;67415;-61
2023/09/29 09:37:11;;;;;;;9.60;8.40;;;;;;;30.70;29.17;98002.98;109824;1243;59769;-62
2023/09/29 09:39:43;;;;;;;10.60;8.80;;;;;;;30.75;29.42;98002.79;110043;1243;59688;-61
2023/09/29 09:42:12;;;;;;;10.00;8.90;;;;;;;31.04;29.01;98001.60;110044;1244;71330;-61
2023/09/29 09:44:42;;;;;;;9.90;7.90;;;;;;;31.27;28.70;97997.71;110046;1244;69843;-61
2023/09/29 09:47:14;;;;;;;9.90;8.00;;;;;;;31.57;28.34;97998.74;109895;1243;69318;-61
2023/09/29 09:49:50;;;;;;;8.00;7.20;;;;;;;31.95;28.05;97995.39;109865;1244;59702;-61
2023/09/29 09:52:24;;;;;;;8.20;7.20;;;;;;;32.12;27.50;97991.98;109839;1244;59784;-61
2023/09/29 09:54:58;;;;;;;9.30;8.20;;;;;;;32.49;27.45;97990.84;109880;1244;70625;-62
2023/09/29 09:57:35;;;;;;;8.50;7.60;;;;;;;32.69;27.33;97985.37;109734;1242;69125;-61
2023/09/29 10:00:10;;;;;;;10.90;7.80;;;;;;;32.97;26.47;97986.97;109816;1244;70653;-61
2023/09/29 10:03:03;;;;;;;8.50;7.60;;;;;;;32.69;26.03;97986.91;109794;1244;59689;-60
2023/09/29 10:05:32;;;;;;;10.40;8.50;;;;;;;32.44;25.61;97983.35;109853;1245;59750;-60
2023/09/29 10:08:05;;;;;;;12.30;7.80;;;;;;;31.90;26.26;97980.91;109865;1244;71971;-60
2023/09/29 10:10:39;;;;;;;8.20;7.30;;;;;;;31.63;26.97;97977.73;109821;1244;69220;-60
2023/09/29 10:13:11;;;;;;;10.00;8.00;;;;;;;31.70;26.65;97978.20;109765;1244;69885;-60
2023/09/29 10:15:54;;;;;;;10.60;8.60;;;;;;;32.28;25.50;97975.38;109769;1243;59721;-61
2023/09/29 10:18:22;;;;;;;13.80;8.60;;;;;;;31.99;25.84;97973.50;109817;1243;59655;-61
2023/09/29 10:21:06;;;;;;;9.90;8.20;;;;;;;31.88;25.46;97969.30;109744;1243;71502;-61
2023/09/29 10:23:45;;;;;;;9.60;8.10;;;;;;;31.91;25.62;97966.79;109783;1243;68498;-60
2023/09/29 10:26:15;;;;;;;9.10;7.10;;;;;;;31.64;26.52;97961.48;109817;1244;69875;-60
2023/09/29 10:28:47;;;;;;;10.30;7.00;;;;;;;32.27;25.82;97959.13;109944;1244;59698;-61
2023/09/29 10:31:21;;;;;;;7.80;6.80;;;;;;;32.39;25.61;97956.95;109939;1244;59652;-61
2023/09/29 10:33:53;;;;;;;14.20;8.40;;;;;;;32.10;25.49;97955.50;109929;1244;72436;-62
2023/09/29 10:36:28;;;;;;;8.90;7.00;;;;;;;32.36;25.03;97948.66;109739;1244;69218;-60
2023/09/29 10:39:04;;;;;;;13.20;7.60;;;;;;;32.52;24.97;97951.00;109835;1247;68716;-60
2023/09/29 10:41:34;;;;;;;8.60;7.20;;;;;;;32.55;25.19;97945.83;109793;1243;59676;-60
2023/09/29 10:44:06;;;;;;;8.40;6.20;;;;;;;32.70;24.50;97942.56;109800;1243;60039;-60
2023/09/29 10:46:36;;;;;;;10.40;6.70;;;;;;;32.76;24.35;97939.09;109820;1244;71999;-62
2023/09/29 10:49:05;;;;;;;8.50;6.50;;;;;;;33.03;23.87;97938.60;109863;1244;69926;-62
2023/09/29 10:51:36;;;;;;;9.50;6.10;;;;;;;32.81;24.21;97932.86;109785;1244;69877;-61
2023/09/29 10:54:07;;;;;;;8.70;6.20;;;;;;;33.08;23.97;97929.92;109889;1244;60055;-61
2023/09/29 10:56:37;;;;;;;9.70;6.80;;;;;;;33.03;24.18;97927.44;109797;1244;59685;-60
2023/09/29 10:59:09;;;;;;;8.20;6.60;;;;;;;32.63;24.58;97928.13;109887;1244;71977;-60
2023/09/29 11:01:38;;;;;;;8.50;6.20;;;;;;;33.45;22.76;97924.79;109930;1244;69048;-61
2023/09/29 11:04:09;;;;;;;9.40;6.10;;;;;;;33.07;23.60;97919.98;109732;1244;69712;-60
2023/09/29 11:06:45;;;;;;;8.40;6.30;;;;;;;33.00;23.42;97917.90;109765;1244;59678;-61
2023/09/29 11:09:19;;;;;;;8.80;6.70;;;;;;;33.23;23.04;97915.02;109836;1244;59640;-60
2023/09/29 11:11:48;;;;;;;9.50;7.20;;;;;;;32.77;23.38;97911.84;109819;1244;71922;-60
2023/09/29 11:14:17;;;;;;;9.10;5.90;;;;;;;32.78;23.38;97907.36;109862;1244;69102;-61
2023/09/29 11:16:57;;;;;;;10.70;7.40;;;;;;;32.66;23.59;97906.73;109793;1244;68383;-60
2023/09/29 11:19:30;;;;;;;9.90;6.70;;;;;;;32.46;23.79;97899.88;109968;1244;59740;-60
2023/09/29 11:22:02;;;;;;;8.90;6.60;;;;;;;32.69;23.37;97895.27;109832;1244;59634;-60
2023/09/29 11:24:42;;;;;;;6.70;5.30;;;;;;;32.38;24.13;97890.64;109752;1242;71267;-61
2023/09/29 11:27:11;;;;;;;8.00;6.00;;;;;;;32.77;23.10;97892.68;109920;1244;69699;-61
2023/09/29 11:29:43;;;;;;;5.70;5.00;;;;;;;32.52;22.79;97888.18;109841;1243;68389;-61
2023/09/29 11:32:12;;;;;;;6.30;4.80;;;;;;;32.22;23.87;97888.70;109824;1244;59753;-60
2023/09/29 11:34:41;;;;;;;5.30;3.10;;;;;;;32.12;22.21;97889.57;109845;1244;59703;-60
2023/09/29 11:37:10;;;;;;;7.50;5.20;;;;;;;32.50;21.77;97885.48;109814;1243;71942;-60
2023/09/29 11:39:42;;;;;;;5.30;4.20;;;;;;;33.25;21.12;97883.85;109778;1243;68779;-61
2023/09/29 11:42:11;;;;;;;8.40;5.60;;;;;;;33.72;21.58;97881.35;109721;1245;69878;-60